Time;durP1;ratioP1;P1;durP2;ratioP2;P2;SDS_P1;SDS_P2;PMS_P1;PMS_P2;Temp;Humidity;BMP_temperature;BMP_pressure;BME280_temperature;BME280_humidity;BME280_pressure;Samples;Min_cycle;Max_cycle;Signal;HPM_P1;HPM_P2
2022/05/11 00:01:30;;;;;;;11.43;10.53;;;15.50;99.90;;;;;;5084283;28;20624;-86
2022/05/11 00:03:57;;;;;;;11.97;11.07;;;15.50;99.90;;;;;;5084725;28;20681;-84
2022/05/11 00:06:25;;;;;;;11.60;10.70;;;15.40;99.90;;;;;;5087283;28;20780;-85
2022/05/11 00:08:52;;;;;;;13.83;10.97;;;15.40;99.90;;;;;;5086415;28;20616;-84
2022/05/11 00:11:21;;;;;;;11.67;9.93;;;15.40;99.90;;;;;;5086115;28;20668;-85
2022/05/11 00:13:48;;;;;;;12.37;11.40;;;15.40;99.90;;;;;;5086146;28;21003;-86
2022/05/11 00:16:15;;;;;;;11.93;11.03;;;15.30;99.90;;;;;;5087636;28;20663;-85
2022/05/11 00:18:42;;;;;;;11.37;10.47;;;15.30;99.90;;;;;;5088331;28;20605;-86
2022/05/11 00:21:11;;;;;;;12.70;11.80;;;15.20;99.90;;;;;;5087820;28;20619;-85
2022/05/11 00:23:38;;;;;;;11.30;10.50;;;15.20;99.90;;;;;;5087090;28;21069;-86
2022/05/11 00:26:06;;;;;;;11.57;10.67;;;15.20;99.90;;;;;;5086848;28;20695;-86
2022/05/11 00:28:34;;;;;;;11.00;10.10;;;15.10;99.90;;;;;;5086647;28;20627;-86
2022/05/11 00:31:01;;;;;;;10.90;10.17;;;15.10;99.90;;;;;;5085593;28;20635;-86
2022/05/11 00:33:28;;;;;;;10.90;10.03;;;15.10;99.90;;;;;;5081036;28;20624;-86
2022/05/11 00:35:55;;;;;;;11.27;10.43;;;15.10;99.90;;;;;;5084609;28;21299;-86
2022/05/11 00:38:23;;;;;;;11.43;10.63;;;15.00;99.90;;;;;;5085071;28;21420;-85
2022/05/11 00:40:52;;;;;;;11.30;10.47;;;15.00;99.90;;;;;;5086548;28;20631;-86
2022/05/11 00:43:27;;;;;;;10.77;9.87;;;15.00;99.90;;;;;;5087678;28;20639;-87
2022/05/11 00:46:03;;;;;;;11.60;10.73;;;15.00;99.90;;;;;;5087061;28;20648;-86
2022/05/11 00:51:15;;;;;;;11.70;10.80;;;14.90;99.90;;;;;;5084606;28;20731;-85
2022/05/11 00:53:50;;;;;;;11.70;10.73;;;14.90;99.90;;;;;;5084723;28;21010;-86
2022/05/11 00:56:17;;;;;;;12.90;12.00;;;14.90;99.90;;;;;;5084995;28;21002;-85
2022/05/11 00:58:49;;;;;;;12.60;11.60;;;14.80;99.90;;;;;;5083335;28;20740;-86
2022/05/11 01:01:18;;;;;;;14.43;13.30;;;14.80;99.90;;;;;;5083529;28;20627;-85
2022/05/11 01:03:54;;;;;;;11.60;10.60;;;14.80;99.90;;;;;;5085116;28;21229;-84
2022/05/11 01:06:23;;;;;;;12.63;11.73;;;14.70;99.90;;;;;;5086149;28;20655;-85
2022/05/11 01:08:50;;;;;;;12.67;11.67;;;14.70;99.90;;;;;;5086052;28;20980;-86
2022/05/11 01:11:17;;;;;;;12.77;11.63;;;14.70;99.90;;;;;;5086492;28;20616;-86
2022/05/11 01:13:45;;;;;;;12.30;11.47;;;14.60;99.90;;;;;;5084772;28;21250;-86
2022/05/11 01:16:14;;;;;;;13.27;12.37;;;14.50;99.90;;;;;;5083551;28;20660;-86
2022/05/11 01:18:43;;;;;;;13.37;12.23;;;14.50;99.90;;;;;;5084625;28;20633;-86
2022/05/11 01:21:10;;;;;;;13.70;12.70;;;14.50;99.90;;;;;;5084154;28;20624;-86
2022/05/11 01:23:45;;;;;;;13.13;12.13;;;14.40;99.90;;;;;;5086225;28;20631;-86
2022/05/11 01:26:16;;;;;;;11.90;11.10;;;14.40;99.90;;;;;;5085894;28;20774;-86
2022/05/11 01:28:45;;;;;;;12.13;11.10;;;14.40;99.90;;;;;;5089660;28;20661;-87
2022/05/11 01:31:13;;;;;;;12.63;11.77;;;14.30;99.90;;;;;;5088863;28;20609;-87
2022/05/11 01:33:45;;;;;;;12.80;11.90;;;14.30;99.90;;;;;;5087177;28;20619;-86
2022/05/11 01:36:19;;;;;;;12.70;11.53;;;14.30;99.90;;;;;;5087938;28;20667;-87
2022/05/11 01:38:47;;;;;;;12.90;11.80;;;14.20;99.90;;;;;;5085415;28;20974;-86
2022/05/11 01:41:20;;;;;;;12.97;11.97;;;14.20;99.90;;;;;;5085159;28;20679;-85
2022/05/11 01:43:47;;;;;;;11.50;10.60;;;14.20;99.90;;;;;;5082156;28;21139;-85
2022/05/11 01:46:16;;;;;;;11.33;10.33;;;14.20;99.90;;;;;;5083433;28;20652;-86
2022/05/11 01:48:43;;;;;;;11.73;10.73;;;14.20;99.90;;;;;;5079321;28;20731;-86
2022/05/11 01:51:11;;;;;;;11.70;10.60;;;14.20;99.90;;;;;;5085569;28;20638;-85
2022/05/11 01:53:37;;;;;;;11.67;10.67;;;14.20;99.90;;;;;;5084685;28;20678;-84
2022/05/11 01:56:05;;;;;;;11.83;10.93;;;14.10;99.90;;;;;;5084970;28;20739;-86
2022/05/11 01:58:33;;;;;;;11.37;10.10;;;14.10;99.90;;;;;;5085332;28;20643;-85
2022/05/11 02:01:00;;;;;;;10.70;9.87;;;14.10;99.90;;;;;;5080403;28;20644;-84
2022/05/11 02:03:27;;;;;;;11.40;10.60;;;14.10;99.90;;;;;;5088026;28;20636;-85
2022/05/11 02:08:43;;;;;;;11.00;10.07;;;14.00;99.90;;;;;;5083104;28;21162;-83
2022/05/11 02:11:11;;;;;;;10.53;9.73;;;14.00;99.90;;;;;;5083818;28;20671;-87
2022/05/11 02:13:39;;;;;;;11.73;10.93;;;14.00;99.90;;;;;;5084484;28;20667;-85
2022/05/11 02:16:07;;;;;;;9.20;8.40;;;14.00;99.90;;;;;;5081835;28;20643;-85
2022/05/11 02:18:34;;;;;;;10.60;9.90;;;13.90;99.90;;;;;;5084003;28;20971;-84
2022/05/11 02:21:01;;;;;;;10.80;9.97;;;13.90;99.90;;;;;;5085702;28;20632;-85
2022/05/11 02:23:28;;;;;;;11.67;10.67;;;13.90;99.90;;;;;;5082998;28;20644;-84
2022/05/11 02:25:55;;;;;;;12.27;11.20;;;13.80;99.90;;;;;;5084535;28;20647;-85
2022/05/11 02:28:22;;;;;;;11.90;10.90;;;13.90;99.90;;;;;;5082358;28;20667;-85
2022/05/11 02:30:52;;;;;;;11.87;11.00;;;13.80;99.90;;;;;;5080136;28;21312;-84
2022/05/11 02:33:20;;;;;;;11.57;10.83;;;13.90;99.90;;;;;;5081822;28;20655;-85
2022/05/11 02:35:47;;;;;;;11.80;10.80;;;13.90;99.90;;;;;;5080468;28;20663;-85
2022/05/11 02:38:17;;;;;;;11.00;10.20;;;13.80;99.90;;;;;;5083992;28;21198;-85
2022/05/11 02:40:46;;;;;;;11.20;10.40;;;13.70;99.90;;;;;;5083802;28;20640;-85
2022/05/11 02:43:13;;;;;;;11.73;10.70;;;13.80;99.90;;;;;;5084790;28;20636;-85
2022/05/11 02:45:41;;;;;;;12.00;11.10;;;13.80;99.90;;;;;;5084541;28;20647;-84
2022/05/11 02:48:10;;;;;;;13.07;12.03;;;13.80;99.90;;;;;;5083148;28;20628;-85
2022/05/11 02:50:42;;;;;;;13.40;12.40;;;13.70;99.90;;;;;;5080279;28;20624;-87
2022/05/11 02:53:11;;;;;;;12.23;11.43;;;13.70;99.90;;;;;;5084047;28;20648;-86
2022/05/11 02:55:38;;;;;;;11.80;11.00;;;13.60;99.90;;;;;;5081261;28;20651;-86
2022/05/11 02:58:05;;;;;;;11.67;10.87;;;13.60;99.90;;;;;;5082759;28;20636;-88
2022/05/11 03:00:33;;;;;;;12.13;11.23;;;13.70;99.90;;;;;;5087078;28;20624;-88
2022/05/11 03:03:02;;;;;;;12.13;10.93;;;13.60;99.90;;;;;;5085232;28;20635;-86
2022/05/11 03:05:31;;;;;;;11.87;10.67;;;13.60;99.90;;;;;;5085644;28;21260;-86
2022/05/11 03:07:57;;;;;;;11.93;11.03;;;13.60;99.90;;;;;;5086808;28;20629;-85
2022/05/11 03:10:25;;;;;;;12.03;10.80;;;13.60;99.90;;;;;;5083919;28;21287;-86
2022/05/11 03:12:52;;;;;;;11.70;10.90;;;13.50;99.90;;;;;;5086927;28;20657;-86
2022/05/11 03:15:19;;;;;;;12.13;11.03;;;13.60;99.90;;;;;;5087524;28;20725;-86
2022/05/11 03:17:46;;;;;;;14.80;11.10;;;13.60;99.90;;;;;;5087899;28;20631;-86
2022/05/11 03:20:13;;;;;;;12.63;11.33;;;13.50;99.90;;;;;;5088511;28;20616;-86
2022/05/11 03:22:42;;;;;;;12.73;11.60;;;13.50;99.90;;;;;;5085091;28;20639;-86
2022/05/11 03:25:10;;;;;;;11.30;10.40;;;13.50;99.90;;;;;;5077711;28;20638;-85
2022/05/11 03:27:37;;;;;;;11.83;10.93;;;13.50;99.90;;;;;;5087046;28;20651;-85
2022/05/11 03:30:05;;;;;;;12.20;11.13;;;13.50;99.90;;;;;;5086377;28;20634;-85
2022/05/11 03:35:17;;;;;;;11.27;10.47;;;13.40;99.90;;;;;;5084629;28;20732;-86
2022/05/11 03:37:45;;;;;;;11.70;10.90;;;13.40;99.90;;;;;;5083589;28;20719;-87
2022/05/11 03:40:12;;;;;;;11.60;10.80;;;13.40;99.90;;;;;;5087220;28;20636;-88
2022/05/11 03:42:40;;;;;;;10.57;9.67;;;13.40;99.90;;;;;;5084404;28;20623;-86
2022/05/11 03:45:09;;;;;;;11.20;10.40;;;13.30;99.90;;;;;;5084892;28;20658;-88
2022/05/11 03:47:36;;;;;;;11.00;10.20;;;13.30;99.90;;;;;;5083918;28;20616;-86
2022/05/11 03:50:03;;;;;;;11.50;10.60;;;13.30;99.90;;;;;;5086015;28;20649;-87
2022/05/11 03:52:30;;;;;;;11.20;10.50;;;13.30;99.90;;;;;;5087187;28;20665;-87
2022/05/11 03:54:58;;;;;;;12.47;11.47;;;13.30;99.90;;;;;;5086604;28;21217;-87
2022/05/11 03:57:25;;;;;;;12.00;11.20;;;13.30;99.90;;;;;;5087726;28;20628;-88
2022/05/11 03:59:52;;;;;;;12.87;11.63;;;13.30;99.90;;;;;;5089069;28;20639;-88
2022/05/11 04:02:19;;;;;;;12.13;11.13;;;13.30;99.90;;;;;;5088241;28;21377;-88
2022/05/11 04:04:46;;;;;;;11.63;10.73;;;13.20;99.90;;;;;;5083286;28;20634;-87
2022/05/11 04:07:13;;;;;;;12.50;11.27;;;13.20;99.90;;;;;;5084145;28;20625;-87
2022/05/11 04:09:40;;;;;;;11.60;10.50;;;13.20;99.90;;;;;;5082371;28;20676;-87
2022/05/11 04:12:10;;;;;;;11.43;10.63;;;13.10;99.90;;;;;;5087564;28;20638;-87
2022/05/11 04:14:37;;;;;;;11.30;10.40;;;13.10;99.90;;;;;;5086677;28;20627;-86
2022/05/11 04:17:04;;;;;;;12.40;11.20;;;13.20;99.90;;;;;;5086207;28;20632;-88
2022/05/11 04:19:31;;;;;;;12.00;11.10;;;13.20;99.90;;;;;;5083951;28;20636;-88
2022/05/11 04:21:58;;;;;;;12.83;11.83;;;13.20;99.90;;;;;;5083750;28;20628;-88
2022/05/11 04:24:25;;;;;;;11.63;10.83;;;13.20;99.90;;;;;;5086877;28;20627;-88
2022/05/11 04:26:52;;;;;;;13.73;12.50;;;13.20;99.90;;;;;;5086881;28;20648;-87
2022/05/11 04:29:23;;;;;;;11.47;10.63;;;13.20;99.90;;;;;;5084945;28;20643;-88
2022/05/11 04:31:54;;;;;;;12.30;11.50;;;13.20;99.90;;;;;;5085043;28;20694;-86
2022/05/11 04:34:21;;;;;;;12.80;11.80;;;13.00;99.90;;;;;;5086201;28;20742;-86
2022/05/11 04:36:48;;;;;;;12.17;11.07;;;13.30;99.90;;;;;;5078889;28;20649;-87
2022/05/11 04:39:15;;;;;;;11.77;10.77;;;13.30;99.90;;;;;;5084632;28;20705;-87
2022/05/11 04:41:42;;;;;;;12.40;11.40;;;13.30;99.90;;;;;;5084961;28;20640;-88
2022/05/11 04:44:09;;;;;;;12.93;11.93;;;13.30;99.90;;;;;;5082849;28;20620;-88
2022/05/11 04:46:40;;;;;;;13.57;12.50;;;13.30;99.90;;;;;;5086374;28;21234;-88
2022/05/11 04:49:20;;;;;;;13.67;12.57;;;13.30;99.90;;;;;;5089011;28;21004;-87
2022/05/11 04:51:48;;;;;;;12.30;11.50;;;12.90;99.90;;;;;;5088981;28;20617;-86
2022/05/11 04:54:16;;;;;;;12.00;11.20;;;13.40;99.90;;;;;;5087547;28;20652;-87
2022/05/11 04:56:42;;;;;;;13.50;12.60;;;13.50;99.90;;;;;;5085084;28;20643;-86
2022/05/11 04:59:12;;;;;;;12.47;11.47;;;13.40;99.90;;;;;;5086626;28;20723;-87
2022/05/11 05:01:41;;;;;;;11.40;10.50;;;13.60;99.90;;;;;;5087553;28;20635;-86
2022/05/11 05:04:08;;;;;;;12.57;11.07;;;13.70;99.90;;;;;;5080578;28;20661;-86
2022/05/11 05:06:36;;;;;;;12.83;11.83;;;13.80;99.90;;;;;;5084168;28;20664;-88
2022/05/11 05:09:05;;;;;;;12.90;11.80;;;13.90;99.90;;;;;;5087112;28;20636;-87
2022/05/11 05:11:33;;;;;;;11.87;10.87;;;13.90;99.90;;;;;;5087375;28;20624;-87
2022/05/11 05:14:00;;;;;;;12.20;11.20;;;13.90;99.90;;;;;;5084487;28;20660;-86
2022/05/11 05:16:27;;;;;;;13.87;12.60;;;14.00;99.90;;;;;;5083433;28;20679;-86
2022/05/11 05:18:56;;;;;;;12.50;11.40;;;14.00;99.90;;;;;;5085718;28;20671;-84
2022/05/11 05:21:23;;;;;;;13.03;11.73;;;14.20;99.90;;;;;;5084362;28;20715;-85
2022/05/11 05:23:50;;;;;;;12.80;11.70;;;14.20;99.90;;;;;;5083844;28;20710;-84
2022/05/11 05:26:17;;;;;;;13.73;12.67;;;14.20;99.90;;;;;;5090503;28;20607;-88
2022/05/11 05:31:31;;;;;;;13.90;12.77;;;14.40;99.90;;;;;;5077480;28;20818;-86
2022/05/11 05:34:00;;;;;;;12.50;11.50;;;14.50;99.90;;;;;;5085133;28;20758;-86
2022/05/11 05:36:27;;;;;;;13.13;12.10;;;14.60;99.90;;;;;;5082994;28;20611;-86
2022/05/11 05:38:54;;;;;;;13.60;12.27;;;14.60;99.90;;;;;;5082845;28;20687;-86
2022/05/11 05:41:22;;;;;;;12.83;11.93;;;14.70;99.90;;;;;;5085075;28;20600;-86
2022/05/11 05:43:49;;;;;;;12.87;11.67;;;14.80;99.90;;;;;;5084615;28;21190;-86
2022/05/11 05:46:17;;;;;;;13.43;12.33;;;14.90;99.90;;;;;;5083064;28;20678;-87
2022/05/11 05:48:44;;;;;;;12.10;11.20;;;15.00;99.90;;;;;;5086664;28;20995;-88
2022/05/11 05:51:16;;;;;;;12.40;11.40;;;15.10;99.90;;;;;;5084529;28;20951;-87
2022/05/11 05:53:44;;;;;;;12.37;11.27;;;15.20;99.90;;;;;;5082645;28;20671;-86
2022/05/11 05:56:14;;;;;;;12.60;11.37;;;15.20;99.90;;;;;;5084078;28;20632;-86
2022/05/11 05:58:45;;;;;;;12.50;11.40;;;15.30;99.90;;;;;;5085791;28;20679;-86
2022/05/11 06:01:16;;;;;;;12.67;11.67;;;15.40;99.90;;;;;;5085354;28;20631;-86
2022/05/11 06:03:44;;;;;;;12.70;11.60;;;15.50;99.90;;;;;;5074479;28;20637;-86
2022/05/11 06:06:13;;;;;;;10.60;9.70;;;15.60;99.90;;;;;;5084426;28;21423;-87
2022/05/11 06:08:40;;;;;;;12.33;11.27;;;15.80;99.90;;;;;;5080696;28;21086;-87
2022/05/11 06:11:08;;;;;;;14.63;11.87;;;15.90;99.90;;;;;;5084893;28;20631;-86
2022/05/11 06:13:36;;;;;;;11.63;10.50;;;16.00;99.90;;;;;;5085934;28;20664;-87
2022/05/11 06:16:09;;;;;;;14.80;10.80;;;16.20;99.90;;;;;;5081083;28;20759;-86
2022/05/11 06:18:36;;;;;;;16.07;10.57;;;16.20;99.90;;;;;;5084771;28;20691;-86
2022/05/11 06:21:03;;;;;;;12.20;11.00;;;16.30;99.90;;;;;;5082832;28;20624;-86
2022/05/11 06:23:32;;;;;;;13.87;10.50;;;16.40;99.90;;;;;;5085859;28;20625;-86
2022/05/11 06:25:58;;;;;;;14.23;10.10;;;16.50;99.90;;;;;;5085352;28;20660;-86
2022/05/11 06:28:25;;;;;;;9.97;8.87;;;16.60;99.90;;;;;;5087423;28;20648;-87
2022/05/11 06:30:52;;;;;;;10.00;9.10;;;16.70;99.90;;;;;;5080951;28;21273;-86
2022/05/11 06:33:19;;;;;;;10.13;9.10;;;16.80;99.90;;;;;;5082215;28;20664;-86
2022/05/11 06:35:46;;;;;;;10.67;9.67;;;16.90;99.90;;;;;;5083210;28;21207;-88
2022/05/11 06:38:14;;;;;;;16.83;11.07;;;17.10;99.90;;;;;;5081522;28;20628;-86
2022/05/11 06:40:42;;;;;;;28.30;9.63;;;17.20;99.90;;;;;;5086091;28;20744;-84
2022/05/11 06:43:08;;;;;;;10.73;8.70;;;17.20;99.90;;;;;;5085092;28;20635;-85
2022/05/11 06:45:35;;;;;;;12.00;8.80;;;17.30;99.90;;;;;;5085868;28;20635;-85
2022/05/11 06:48:02;;;;;;;10.00;8.97;;;17.50;99.90;;;;;;5085752;28;20616;-84
2022/05/11 06:50:29;;;;;;;8.20;7.40;;;17.60;99.90;;;;;;5077390;28;20663;-85
2022/05/11 06:52:57;;;;;;;9.10;8.00;;;17.70;99.90;;;;;;5086408;28;20627;-87
2022/05/11 07:00:54;;;;;;;8.37;7.70;;;18.20;99.90;;;;;;5083823;28;20681;-87
2022/05/11 07:03:22;;;;;;;9.80;8.30;;;18.30;99.90;;;;;;5088881;28;20628;-86
2022/05/11 07:05:49;;;;;;;8.60;7.90;;;18.40;99.90;;;;;;5087408;28;21141;-88
2022/05/11 07:08:16;;;;;;;9.37;8.40;;;18.50;99.90;;;;;;5086537;28;20577;-86
2022/05/11 07:12:17;;;;;;;8.80;8.03;;;18.60;99.90;;;;;;5088260;28;20651;-86
2022/05/11 07:13:32;;;;;;;8.77;8.07;;;18.70;99.90;;;;;;5081734;28;21259;-86
2022/05/11 07:15:59;;;;;;;7.13;6.47;;;18.80;99.90;;;;;;5085759;28;20624;-87
2022/05/11 07:18:26;;;;;;;8.43;7.63;;;19.00;99.90;;;;;;5086826;28;20608;-86
2022/05/11 07:20:53;;;;;;;9.10;8.17;;;19.10;99.90;;;;;;5084844;28;21225;-86
2022/05/11 07:23:21;;;;;;;9.63;8.83;;;19.20;99.90;;;;;;5078060;28;20626;-86
2022/05/11 07:25:48;;;;;;;7.73;7.23;;;19.30;99.90;;;;;;5086169;28;21171;-86
2022/05/11 07:28:17;;;;;;;8.97;8.20;;;19.40;99.90;;;;;;5087709;28;20608;-86
2022/05/11 07:30:47;;;;;;;7.90;6.90;;;19.60;99.90;;;;;;5088528;28;21285;-86
2022/05/11 07:33:17;;;;;;;7.80;7.10;;;19.70;99.90;;;;;;5083658;28;20650;-85
2022/05/11 07:35:45;;;;;;;7.33;6.77;;;19.70;99.90;;;;;;5089601;28;20628;-86
2022/05/11 07:38:14;;;;;;;8.23;6.47;;;19.80;99.90;;;;;;5086537;28;20659;-86
2022/05/11 07:40:41;;;;;;;7.07;6.37;;;20.00;99.90;;;;;;5083727;28;20628;-87
2022/05/11 07:43:12;;;;;;;14.03;6.20;;;20.10;99.90;;;;;;5085723;28;20631;-86
2022/05/11 07:45:40;;;;;;;7.13;6.67;;;20.20;99.90;;;;;;5081689;28;21139;-86
2022/05/11 07:48:10;;;;;;;7.80;7.10;;;20.40;99.90;;;;;;5086015;28;20604;-87
2022/05/11 07:50:37;;;;;;;6.57;5.97;;;20.50;99.90;;;;;;5084310;28;20642;-86
2022/05/11 07:53:04;;;;;;;7.00;6.33;;;20.50;99.90;;;;;;5081838;28;21218;-85
2022/05/11 07:55:33;;;;;;;5.80;5.40;;;20.60;99.90;;;;;;5086936;28;20727;-85
2022/05/11 08:00:45;;;;;;;5.77;5.27;;;20.90;99.90;;;;;;5083302;28;20603;-87
2022/05/11 08:03:14;;;;;;;5.93;5.47;;;21.10;99.90;;;;;;5084180;28;20655;-85
2022/05/11 08:05:42;;;;;;;6.03;5.53;;;21.30;99.90;;;;;;5084807;28;21080;-86
2022/05/11 08:08:09;;;;;;;6.40;5.90;;;21.40;99.90;;;;;;5091739;28;20626;-86
2022/05/11 08:10:39;;;;;;;5.33;4.93;;;21.50;99.90;;;;;;5088692;28;20620;-86
2022/05/11 08:13:07;;;;;;;5.67;5.17;;;21.70;99.90;;;;;;5086528;28;21058;-86
2022/05/11 08:15:36;;;;;;;6.77;5.70;;;21.80;99.90;;;;;;5086455;28;20660;-86
2022/05/11 08:18:04;;;;;;;5.50;4.93;;;21.80;99.90;;;;;;5081680;28;21333;-86
2022/05/11 08:20:36;;;;;;;4.13;3.90;;;21.80;99.90;;;;;;5084806;28;20658;-85
2022/05/11 08:23:04;;;;;;;8.57;4.03;;;22.00;99.90;;;;;;5084588;28;20656;-85
2022/05/11 08:25:35;;;;;;;5.30;4.00;;;22.20;99.90;;;;;;5085343;28;20612;-86
2022/05/11 08:28:03;;;;;;;3.93;3.63;;;22.30;99.90;;;;;;5085298;28;20659;-86
2022/05/11 08:33:22;;;;;;;5.43;3.70;;;22.70;99.90;;;;;;5082779;28;20639;-86
2022/05/11 08:35:53;;;;;;;5.00;3.53;;;22.80;99.90;;;;;;5083819;28;20983;-86
2022/05/11 08:38:22;;;;;;;3.30;2.90;;;22.90;99.90;;;;;;5085113;28;20643;-86
2022/05/11 08:40:55;;;;;;;5.90;3.83;;;23.10;98.90;;;;;;5086966;28;20607;-87
2022/05/11 08:43:23;;;;;;;3.90;3.60;;;23.20;97.30;;;;;;5084513;28;20673;-87
2022/05/11 08:46:01;;;;;;;3.40;3.20;;;23.30;97.90;;;;;;5083999;28;20624;-88
2022/05/11 08:48:38;;;;;;;3.73;3.43;;;23.40;96.80;;;;;;5087709;28;20655;-86
2022/05/11 08:51:10;;;;;;;3.40;3.20;;;23.50;95.30;;;;;;5085061;28;20619;-86
2022/05/11 08:53:39;;;;;;;4.60;4.03;;;23.60;94.20;;;;;;5083467;28;20635;-86
2022/05/11 08:56:12;;;;;;;3.87;3.43;;;23.80;93.30;;;;;;5082901;28;20675;-86
2022/05/11 08:58:45;;;;;;;3.87;3.57;;;23.80;93.80;;;;;;5080954;28;20678;-85
2022/05/11 09:01:19;;;;;;;4.87;3.53;;;23.90;94.50;;;;;;5083836;28;21447;-87
2022/05/11 09:03:46;;;;;;;4.40;4.00;;;24.00;92.90;;;;;;5079827;28;20628;-86
2022/05/11 09:06:20;;;;;;;5.50;3.50;;;24.10;91.60;;;;;;5083203;28;20628;-87
2022/05/11 09:08:47;;;;;;;3.93;3.63;;;24.20;91.70;;;;;;5083188;28;20660;-87
2022/05/11 09:11:17;;;;;;;4.03;3.73;;;24.30;91.90;;;;;;5086556;28;20628;-87
2022/05/11 09:13:44;;;;;;;3.90;3.60;;;24.40;91.10;;;;;;5085372;28;20650;-86
2022/05/11 09:16:21;;;;;;;4.20;3.80;;;24.50;90.70;;;;;;5086501;28;21182;-86
2022/05/11 09:18:48;;;;;;;4.90;3.90;;;24.60;90.50;;;;;;5083005;28;20651;-86
2022/05/11 09:21:41;;;;;;;4.80;3.83;;;24.70;90.80;;;;;;5083284;28;20628;-86
2022/05/11 09:24:22;;;;;;;7.53;3.37;;;24.80;85.10;;;;;;5071304;28;20716;-88
2022/05/11 09:27:06;;;;;;;4.53;4.23;;;24.80;83.80;;;;;;5085939;28;20669;-87
2022/05/11 09:29:37;;;;;;;4.07;3.60;;;24.80;87.20;;;;;;5087365;28;20720;-88
2022/05/11 09:32:23;;;;;;;4.20;3.87;;;24.90;87.30;;;;;;5085244;28;20642;-89
2022/05/11 09:34:50;;;;;;;9.53;3.77;;;24.90;86.90;;;;;;5089323;28;20675;-86
2022/05/11 09:37:28;;;;;;;3.90;3.60;;;25.10;88.00;;;;;;5086966;28;20675;-86
2022/05/11 09:40:06;;;;;;;5.80;4.00;;;25.20;84.70;;;;;;5085191;28;21195;-86
2022/05/11 09:42:34;;;;;;;3.90;3.70;;;25.30;84.90;;;;;;5084019;28;20612;-86
2022/05/11 09:45:01;;;;;;;3.80;3.60;;;25.30;84.70;;;;;;5086088;28;20627;-86
2022/05/11 09:47:30;;;;;;;4.57;4.07;;;25.30;85.00;;;;;;5085328;28;20652;-86
2022/05/11 09:50:26;;;;;;;5.60;4.20;;;25.40;86.30;;;;;;5083294;28;20666;-87
2022/05/11 09:53:08;;;;;;;5.13;4.73;;;25.30;86.40;;;;;;5081005;28;20632;-86
2022/05/11 09:55:36;;;;;;;4.50;4.20;;;25.40;84.80;;;;;;5082634;28;20679;-87
2022/05/11 09:58:06;;;;;;;5.10;4.70;;;25.40;83.50;;;;;;5084073;28;20664;-86
2022/05/11 10:00:36;;;;;;;4.17;3.90;;;25.40;85.30;;;;;;5081832;28;20696;-86
2022/05/11 10:03:06;;;;;;;6.80;4.23;;;25.40;84.00;;;;;;5083228;28;21204;-87
2022/05/11 10:05:40;;;;;;;5.03;4.60;;;25.60;82.50;;;;;;5082915;28;20601;-87
2022/05/11 10:08:15;;;;;;;5.27;4.20;;;25.70;82.00;;;;;;5088784;28;20658;-87
2022/05/11 10:10:46;;;;;;;4.70;4.33;;;25.80;84.60;;;;;;5082045;28;21434;-86
2022/05/11 10:13:21;;;;;;;4.50;4.10;;;25.90;84.20;;;;;;5089334;28;20612;-87
2022/05/11 10:21:54;;;;;;;8.00;4.07;;;26.10;77.60;;;;;;5085633;28;21299;-87
2022/05/11 10:24:34;;;;;;;4.40;4.00;;;26.20;77.30;;;;;;5086342;28;21052;-87
2022/05/11 10:27:10;;;;;;;7.03;3.87;;;26.30;76.20;;;;;;5085989;28;20689;-86
2022/05/11 10:29:57;;;;;;;9.20;4.07;;;26.40;74.70;;;;;;5084792;28;21152;-86
2022/05/11 10:32:33;;;;;;;4.47;4.10;;;26.50;73.90;;;;;;5086553;28;21040;-86
2022/05/11 10:35:09;;;;;;;4.27;3.97;;;26.70;73.60;;;;;;5087365;28;20699;-86
2022/05/11 10:37:43;;;;;;;4.80;4.40;;;26.80;74.10;;;;;;5086242;28;20643;-85
2022/05/11 10:40:20;;;;;;;3.77;3.47;;;27.00;70.60;;;;;;5086465;28;20655;-87
2022/05/11 10:42:58;;;;;;;4.10;3.70;;;27.10;70.10;;;;;;5082301;28;20633;-86
2022/05/11 10:45:33;;;;;;;4.20;3.90;;;27.20;67.00;;;;;;5080675;28;20995;-86
2022/05/11 10:48:13;;;;;;;4.30;4.00;;;27.30;66.40;;;;;;5084815;28;20623;-86
2022/05/11 10:50:50;;;;;;;4.47;3.90;;;27.50;67.20;;;;;;5083787;28;20651;-85
2022/05/11 10:53:32;;;;;;;4.57;4.00;;;27.80;65.10;;;;;;5083358;28;20689;-86
2022/05/11 10:56:24;;;;;;;4.17;3.90;;;28.00;65.70;;;;;;5083973;28;20668;-87
2022/05/11 10:59:16;;;;;;;4.30;3.87;;;28.00;62.90;;;;;;5083807;28;21348;-87
2022/05/11 11:01:55;;;;;;;4.47;4.10;;;28.10;61.20;;;;;;5082868;28;20690;-87
2022/05/11 11:04:39;;;;;;;7.20;3.27;;;28.20;61.30;;;;;;5084459;28;20615;-87
2022/05/11 11:07:24;;;;;;;4.13;3.63;;;28.20;60.10;;;;;;5081984;28;20993;-87
2022/05/11 11:10:03;;;;;;;4.37;3.97;;;28.20;59.60;;;;;;5071726;28;20663;-86
2022/05/11 11:12:57;;;;;;;5.10;3.90;;;28.40;58.70;;;;;;5083555;28;20640;-86
2022/05/11 11:15:27;;;;;;;3.63;3.33;;;28.50;58.90;;;;;;5086087;28;21005;-87
2022/05/11 11:17:56;;;;;;;4.10;3.30;;;28.80;57.30;;;;;;5079329;28;20607;-87
2022/05/11 11:20:25;;;;;;;3.47;3.17;;;28.90;55.80;;;;;;5083133;28;20656;-86
2022/05/11 11:23:08;;;;;;;5.90;3.60;;;29.00;55.20;;;;;;5086788;28;20628;-87
2022/05/11 11:25:51;;;;;;;2.90;2.43;;;29.20;54.90;;;;;;5084363;28;20604;-87
2022/05/11 11:28:21;;;;;;;8.80;3.20;;;29.50;52.30;;;;;;5084274;28;20643;-87
2022/05/11 11:31:21;;;;;;;4.80;3.00;;;29.70;51.10;;;;;;5087801;28;20692;-86
2022/05/11 11:34:12;;;;;;;3.37;3.07;;;29.80;52.00;;;;;;5085792;28;20628;-86
2022/05/11 11:36:41;;;;;;;5.27;3.53;;;30.00;50.10;;;;;;5083891;28;20673;-87
2022/05/11 11:39:11;;;;;;;2.97;2.77;;;30.10;50.30;;;;;;5086323;28;21063;-87
2022/05/11 11:42:03;;;;;;;3.83;3.53;;;30.10;48.00;;;;;;5086298;28;20662;-86
2022/05/11 11:44:39;;;;;;;3.53;3.33;;;30.10;48.00;;;;;;5078848;28;20701;-87
2022/05/11 11:47:48;;;;;;;3.03;2.63;;;30.40;47.90;;;;;;5085406;28;21037;-87
2022/05/11 11:50:49;;;;;;;3.40;3.10;;;30.60;46.80;;;;;;5015435;28;21282;-87
2022/05/11 11:53:24;;;;;;;3.27;2.97;;;30.90;45.70;;;;;;5088422;28;20960;-86
2022/05/11 11:55:51;;;;;;;3.20;2.90;;;31.10;44.50;;;;;;5088866;28;20663;-86
2022/05/11 11:58:27;;;;;;;2.50;2.33;;;31.20;44.10;;;;;;5084247;28;20967;-87
2022/05/11 12:01:07;;;;;;;3.50;3.20;;;31.40;43.90;;;;;;5083841;28;20650;-87
2022/05/11 12:03:38;;;;;;;3.90;3.60;;;31.10;44.70;;;;;;5081184;28;20631;-86
2022/05/11 12:17:33;;;;;;;4.20;2.67;;;32.20;44.30;;;;;;5086525;28;20642;-86
2022/05/11 12:20:04;;;;;;;2.50;2.23;;;32.40;40.70;;;;;;5085040;28;20658;-86
2022/05/11 12:22:32;;;;;;;2.83;2.57;;;32.50;38.10;;;;;;5086566;28;20720;-87
2022/05/11 12:25:03;;;;;;;3.00;2.80;;;32.70;39.40;;;;;;5080973;28;20708;-87
2022/05/11 12:27:33;;;;;;;4.60;3.10;;;32.70;37.90;;;;;;5082880;28;20618;-86
2022/05/11 12:30:04;;;;;;;3.00;2.80;;;32.70;38.50;;;;;;5078279;28;20661;-88
2022/05/11 12:32:36;;;;;;;3.27;2.93;;;32.80;38.00;;;;;;5079100;28;20624;-88
2022/05/11 12:35:11;;;;;;;3.90;2.70;;;32.90;37.80;;;;;;5085771;28;20647;-87
2022/05/11 12:37:38;;;;;;;4.13;3.10;;;33.00;37.00;;;;;;5085890;28;21070;-87
2022/05/11 12:40:08;;;;;;;3.23;2.90;;;32.80;38.10;;;;;;5084402;28;20647;-87
2022/05/11 12:42:39;;;;;;;4.53;2.97;;;32.80;38.80;;;;;;5085026;28;20651;-87
2022/05/11 12:45:10;;;;;;;6.57;2.80;;;32.80;38.90;;;;;;5083718;28;20978;-87
2022/05/11 12:47:44;;;;;;;5.00;3.13;;;32.90;39.70;;;;;;5086696;28;21252;-87
2022/05/11 12:50:17;;;;;;;6.13;3.20;;;33.10;38.90;;;;;;5083037;28;20686;-86
2022/05/11 12:52:45;;;;;;;2.90;2.70;;;33.30;38.80;;;;;;5084731;28;20651;-86
2022/05/11 12:55:13;;;;;;;4.10;3.60;;;33.40;38.00;;;;;;5085849;28;20647;-86
2022/05/11 12:57:45;;;;;;;3.73;3.30;;;33.50;38.20;;;;;;5083299;28;20636;-87
2022/05/11 13:00:19;;;;;;;3.07;2.77;;;33.50;37.70;;;;;;5079111;28;20669;-86
2022/05/11 13:02:48;;;;;;;6.17;3.50;;;33.60;37.80;;;;;;5083929;28;20642;-86
2022/05/11 13:05:18;;;;;;;4.13;2.87;;;33.70;36.50;;;;;;5085370;28;20634;-86
2022/05/11 13:07:50;;;;;;;4.53;3.20;;;33.70;36.70;;;;;;5078681;28;20624;-87
2022/05/11 13:10:29;;;;;;;3.93;2.57;;;33.70;36.50;;;;;;5083504;28;20648;-86
2022/05/11 13:12:58;;;;;;;4.57;3.30;;;33.80;36.50;;;;;;5082459;28;20619;-87
2022/05/11 13:15:39;;;;;;;4.60;3.07;;;34.00;36.50;;;;;;5084350;28;20773;-86
2022/05/11 13:18:11;;;;;;;7.20;2.93;;;34.10;35.80;;;;;;5082906;28;20619;-86
2022/05/11 13:20:40;;;;;;;3.87;2.83;;;34.20;35.60;;;;;;5083561;28;20690;-87
2022/05/11 13:23:20;;;;;;;3.10;2.90;;;34.40;35.10;;;;;;5081699;28;20620;-86
2022/05/11 13:25:50;;;;;;;3.27;2.97;;;34.60;35.50;;;;;;5081718;28;20708;-87
2022/05/11 13:28:25;;;;;;;3.03;2.83;;;34.60;35.20;;;;;;5080905;28;20621;-86
2022/05/11 13:30:56;;;;;;;3.20;3.00;;;34.60;34.50;;;;;;5084326;28;20661;-87
2022/05/11 13:33:39;;;;;;;3.13;2.73;;;34.70;34.30;;;;;;5087390;28;20624;-86
2022/05/11 13:36:19;;;;;;;3.43;3.13;;;34.90;34.60;;;;;;5084837;28;20658;-87